createdAt,value
2018-07-22T00:02:08.917Z,10.57
2018-07-22T00:04:37.592Z,10.47
2018-07-22T00:07:06.429Z,10.73
2018-07-22T00:09:35.170Z,10.37
2018-07-22T00:12:03.860Z,10.23
2018-07-22T00:14:32.492Z,11.03
2018-07-22T00:17:01.205Z,10.63
2018-07-22T00:19:29.860Z,10.40
2018-07-22T00:21:58.491Z,10.40
2018-07-22T00:24:27.196Z,10.77
2018-07-22T00:26:55.880Z,11.00
2018-07-22T00:29:24.419Z,10.73
2018-07-22T00:31:53.020Z,10.60
2018-07-22T00:34:21.684Z,11.07
2018-07-22T00:36:50.303Z,10.50
2018-07-22T00:39:18.974Z,10.67
2018-07-22T00:41:47.848Z,10.80
2018-07-22T00:44:16.573Z,10.40
2018-07-22T00:46:45.247Z,10.97
2018-07-22T00:49:13.864Z,11.20
2018-07-22T00:51:43.377Z,11.10
2018-07-22T00:54:12.003Z,10.23
2018-07-22T00:56:40.741Z,11.10
2018-07-22T00:59:09.369Z,11.23
2018-07-22T01:01:37.980Z,11.30
2018-07-22T01:04:06.624Z,10.03
2018-07-22T01:06:35.239Z,11.23
2018-07-22T01:09:04.787Z,11.50
2018-07-22T01:11:33.505Z,11.30
2018-07-22T01:14:02.172Z,11.37
2018-07-22T01:16:30.845Z,10.60
2018-07-22T01:18:59.560Z,11.37
2018-07-22T01:21:28.520Z,11.00
2018-07-22T01:23:57.209Z,10.80
2018-07-22T01:26:25.842Z,10.43
2018-07-22T01:28:54.104Z,10.67
2018-07-22T01:31:23.388Z,10.93
2018-07-22T01:33:52.035Z,11.00
2018-07-22T01:36:20.685Z,10.53
2018-07-22T01:38:49.268Z,10.70
2018-07-22T01:41:17.964Z,10.63
2018-07-22T01:43:46.835Z,10.80
2018-07-22T01:46:15.200Z,10.50
2018-07-22T01:48:44.509Z,10.47
2018-07-22T01:51:13.130Z,11.47
2018-07-22T01:53:41.748Z,11.57
2018-07-22T01:56:10.355Z,11.80
2018-07-22T01:58:38.967Z,12.17
2018-07-22T02:01:07.713Z,11.77
2018-07-22T02:03:36.346Z,11.40
2018-07-22T02:06:04.981Z,11.53
2018-07-22T02:08:33.624Z,12.13
2018-07-22T02:11:02.261Z,12.40
2018-07-22T02:13:30.885Z,12.03
2018-07-22T02:15:59.188Z,12.60
2018-07-22T02:18:27.820Z,12.20
2018-07-22T02:20:56.517Z,11.97
2018-07-22T02:23:25.132Z,12.03
2018-07-22T02:25:53.713Z,12.10
2018-07-22T02:28:22.324Z,12.57
2018-07-22T02:30:50.970Z,12.20
2018-07-22T02:33:19.591Z,12.90
2018-07-22T02:35:48.208Z,13.53
2018-07-22T02:38:16.833Z,13.40
2018-07-22T02:40:45.525Z,13.17
2018-07-22T02:43:14.133Z,13.33
2018-07-22T02:45:43.378Z,13.80
2018-07-22T02:48:12.052Z,13.60
2018-07-22T02:50:40.737Z,13.07
2018-07-22T02:53:09.382Z,13.20
2018-07-22T02:55:37.999Z,14.80
2018-07-22T02:58:06.660Z,13.50
2018-07-22T03:00:35.320Z,14.40
2018-07-22T03:03:03.934Z,14.07
2018-07-22T03:05:32.625Z,14.17
2018-07-22T03:08:01.229Z,14.07
2018-07-22T03:10:29.763Z,13.73
2018-07-22T03:12:58.529Z,13.67
2018-07-22T03:15:27.225Z,14.17
2018-07-22T03:17:55.828Z,13.70
2018-07-22T03:20:24.552Z,13.93
2018-07-22T03:22:53.188Z,13.73
2018-07-22T03:25:21.887Z,13.33
2018-07-22T03:27:50.563Z,13.60
2018-07-22T03:30:19.160Z,13.57
2018-07-22T03:32:47.790Z,13.87
2018-07-22T03:35:16.395Z,13.33
2018-07-22T03:37:45.073Z,14.50
2018-07-22T03:40:13.740Z,13.40
2018-07-22T03:42:42.467Z,13.63
2018-07-22T03:45:11.357Z,13.30
2018-07-22T03:47:39.949Z,13.50
2018-07-22T03:50:08.550Z,13.43
2018-07-22T03:52:37.131Z,14.13
2018-07-22T03:55:05.766Z,13.77
2018-07-22T03:57:34.442Z,13.07
2018-07-22T04:00:03.187Z,13.43
2018-07-22T04:02:31.785Z,12.53
2018-07-22T04:05:00.382Z,12.53
2018-07-22T04:07:29.024Z,13.63
2018-07-22T04:09:57.689Z,12.90
2018-07-22T04:12:26.279Z,12.80
2018-07-22T04:14:54.940Z,12.77
2018-07-22T04:17:23.554Z,13.30
2018-07-22T04:19:52.328Z,12.90
2018-07-22T04:22:21.152Z,12.20
2018-07-22T04:24:49.752Z,12.80
2018-07-22T04:27:18.382Z,12.37
2018-07-22T04:29:46.987Z,12.27
2018-07-22T04:32:15.593Z,12.33
2018-07-22T04:34:44.282Z,13.23
2018-07-22T04:37:12.936Z,13.03
2018-07-22T04:39:41.560Z,11.90
2018-07-22T04:42:10.204Z,13.27
2018-07-22T04:44:38.883Z,12.07
2018-07-22T04:47:07.512Z,13.50
2018-07-22T04:49:35.816Z,13.40
2018-07-22T04:52:04.515Z,13.07
2018-07-22T04:54:33.168Z,13.43
2018-07-22T04:57:01.844Z,13.33
2018-07-22T04:59:30.501Z,13.63
2018-07-22T05:01:59.101Z,12.50
2018-07-22T05:04:27.777Z,11.70
2018-07-22T05:06:57.470Z,12.70
2018-07-22T05:09:26.104Z,12.77
2018-07-22T05:11:54.882Z,12.33
2018-07-22T05:14:23.518Z,11.63
2018-07-22T05:16:52.455Z,13.27
2018-07-22T05:19:21.071Z,12.90
2018-07-22T05:21:49.712Z,12.53
2018-07-22T05:24:18.340Z,12.13
2018-07-22T05:26:47.499Z,12.47
2018-07-22T05:29:16.135Z,13.97
2018-07-22T05:31:44.711Z,12.50
2018-07-22T05:34:13.324Z,13.47
2018-07-22T05:36:41.974Z,13.60
2018-07-22T05:39:12.324Z,14.27
2018-07-22T05:41:41.471Z,13.67
2018-07-22T05:44:10.091Z,13.50
2018-07-22T05:46:38.815Z,14.17
2018-07-22T05:49:07.426Z,14.37
2018-07-22T05:51:36.173Z,14.10
2018-07-22T05:54:04.978Z,14.27
2018-07-22T05:56:33.546Z,13.57
2018-07-22T05:59:02.213Z,13.80
2018-07-22T06:01:30.924Z,14.07
2018-07-22T06:03:59.572Z,13.80
2018-07-22T06:06:28.228Z,13.53
2018-07-22T06:08:56.819Z,14.27
2018-07-22T06:11:25.437Z,14.37
2018-07-22T06:13:54.107Z,13.27
2018-07-22T06:16:22.706Z,13.80
2018-07-22T06:18:51.366Z,13.70
2018-07-22T06:21:20.367Z,13.73
2018-07-22T06:23:48.994Z,14.20
2018-07-22T06:26:17.820Z,14.83
2018-07-22T06:28:46.462Z,13.17
2018-07-22T06:31:15.139Z,13.97
2018-07-22T06:33:43.756Z,13.47
2018-07-22T06:36:12.649Z,13.70
2018-07-22T06:38:41.256Z,14.33
2018-07-22T06:41:09.887Z,13.83
2018-07-22T06:43:38.565Z,13.27
2018-07-22T06:46:07.394Z,13.53
2018-07-22T06:48:36.063Z,12.77
2018-07-22T06:51:04.718Z,14.73
2018-07-22T06:53:33.501Z,13.13
2018-07-22T06:56:02.172Z,12.47
2018-07-22T06:58:30.765Z,13.40
2018-07-22T07:00:59.473Z,13.10
2018-07-22T07:03:28.027Z,12.80
2018-07-22T07:05:56.617Z,14.20
2018-07-22T07:08:25.288Z,13.80
2018-07-22T07:10:53.968Z,13.97
2018-07-22T07:13:22.564Z,14.57
2018-07-22T07:15:51.310Z,12.77
2018-07-22T07:18:19.965Z,13.20
2018-07-22T07:20:48.645Z,12.70
2018-07-22T07:23:18.159Z,12.93
2018-07-22T07:25:46.724Z,12.77
2018-07-22T07:28:15.388Z,13.60
2018-07-22T07:30:44.104Z,11.67
2018-07-22T07:33:13.026Z,14.30
2018-07-22T07:35:41.613Z,11.33
2018-07-22T07:38:10.468Z,12.37
2018-07-22T07:40:39.912Z,12.80
2018-07-22T07:43:08.502Z,12.57
2018-07-22T07:45:37.123Z,12.73
2018-07-22T07:48:06.164Z,12.30
2018-07-22T07:50:34.804Z,12.50
2018-07-22T07:53:04.404Z,12.07
2018-07-22T07:55:33.000Z,11.57
2018-07-22T07:58:01.694Z,12.37
2018-07-22T08:00:30.353Z,11.80
2018-07-22T08:02:59.912Z,11.57
2018-07-22T08:05:28.657Z,12.17
2018-07-22T08:07:57.307Z,12.00
2018-07-22T08:10:25.939Z,11.30
2018-07-22T08:12:54.651Z,12.10
2018-07-22T08:15:23.256Z,12.57
2018-07-22T08:17:51.994Z,11.60
2018-07-22T08:20:20.720Z,11.43
2018-07-22T08:22:49.092Z,12.17
2018-07-22T08:25:17.795Z,12.17
2018-07-22T08:27:46.428Z,11.40
2018-07-22T08:30:15.125Z,11.10
2018-07-22T08:32:43.760Z,13.03
2018-07-22T08:35:12.460Z,12.33
2018-07-22T08:37:41.129Z,12.93
2018-07-22T08:40:09.800Z,11.77
2018-07-22T08:42:38.741Z,11.70
2018-07-22T08:45:07.487Z,11.43
2018-07-22T08:47:36.222Z,10.07
2018-07-22T08:50:05.235Z,11.50
2018-07-22T08:52:33.900Z,10.50
2018-07-22T08:55:02.539Z,10.13
2018-07-22T08:57:31.209Z,10.47
2018-07-22T08:59:59.868Z,10.27
2018-07-22T09:02:28.700Z,10.47
2018-07-22T09:04:57.367Z,10.03
2018-07-22T09:07:26.110Z,8.90
2018-07-22T09:09:54.711Z,9.03
2018-07-22T09:12:23.376Z,8.50
2018-07-22T09:14:52.007Z,8.60
2018-07-22T09:17:20.668Z,9.03
2018-07-22T09:19:49.275Z,9.13
2018-07-22T09:22:17.919Z,8.00
2018-07-22T09:24:46.544Z,8.03
2018-07-22T09:27:15.976Z,8.70
2018-07-22T09:29:44.596Z,8.77
2018-07-22T09:32:13.259Z,8.90
2018-07-22T09:34:41.864Z,8.60
2018-07-22T09:37:10.484Z,9.03
2018-07-22T09:39:39.114Z,8.43
2018-07-22T09:42:07.794Z,8.47
2018-07-22T09:44:36.460Z,9.23
2018-07-22T09:47:05.624Z,8.70
2018-07-22T09:49:34.405Z,9.07
2018-07-22T09:52:03.029Z,8.77
2018-07-22T09:54:31.776Z,8.30
2018-07-22T09:57:00.407Z,9.67
2018-07-22T09:59:29.093Z,9.00
2018-07-22T10:01:57.719Z,9.23
2018-07-22T10:04:27.384Z,9.10
2018-07-22T10:06:56.053Z,9.83
2018-07-22T10:09:24.715Z,9.17
2018-07-22T10:11:53.316Z,9.63
2018-07-22T10:14:22.298Z,9.10
2018-07-22T10:16:50.854Z,8.93
2018-07-22T10:19:19.444Z,9.13
2018-07-22T10:21:48.287Z,9.43
2018-07-22T10:24:16.962Z,8.50
2018-07-22T10:26:45.569Z,8.77
2018-07-22T10:29:13.927Z,8.40
2018-07-22T10:31:43.076Z,8.80
2018-07-22T10:34:11.688Z,8.67
2018-07-22T10:36:40.307Z,8.63
2018-07-22T10:39:10.613Z,8.30
2018-07-22T10:41:39.344Z,8.00
2018-07-22T10:44:08.100Z,8.27
2018-07-22T10:46:36.832Z,8.13
2018-07-22T10:49:05.508Z,8.60
2018-07-22T10:51:34.215Z,8.67
2018-07-22T10:54:02.882Z,8.20
2018-07-22T10:56:31.515Z,8.53
2018-07-22T10:59:00.116Z,8.50
2018-07-22T11:01:28.723Z,8.17
2018-07-22T11:03:57.350Z,8.80
2018-07-22T11:06:26.015Z,8.30
2018-07-22T11:08:54.616Z,8.77
2018-07-22T11:11:23.207Z,8.17
2018-07-22T11:13:51.829Z,8.10
2018-07-22T11:16:20.450Z,8.43
2018-07-22T11:18:49.137Z,8.30
2018-07-22T11:21:17.873Z,7.93
2018-07-22T11:23:46.407Z,8.20
2018-07-22T11:26:15.044Z,8.87
2018-07-22T11:28:43.804Z,8.90
2018-07-22T11:31:12.461Z,8.40
2018-07-22T11:33:41.224Z,7.77
2018-07-22T11:36:09.775Z,7.40
2018-07-22T11:38:38.380Z,7.73
2018-07-22T11:41:08.166Z,7.50
2018-07-22T11:43:36.822Z,8.33
2018-07-22T11:46:05.454Z,8.17
2018-07-22T11:48:34.074Z,7.97
2018-07-22T11:51:02.773Z,7.80
2018-07-22T11:53:31.086Z,8.27
2018-07-22T11:55:59.877Z,8.40
2018-07-22T11:58:28.515Z,8.87
2018-07-22T12:00:56.969Z,7.97
2018-07-22T12:03:25.600Z,8.30
2018-07-22T12:05:54.223Z,8.33
2018-07-22T12:08:22.871Z,8.40
2018-07-22T12:10:51.525Z,8.17
2018-07-22T12:13:20.188Z,8.57
2018-07-22T12:15:48.838Z,8.20
2018-07-22T12:18:17.453Z,8.33
2018-07-22T12:20:46.200Z,7.87
2018-07-22T12:23:14.854Z,8.67
2018-07-22T12:25:43.556Z,8.33
2018-07-22T12:28:12.229Z,7.73
2018-07-22T12:30:40.954Z,7.70
2018-07-22T12:33:09.651Z,7.97
2018-07-22T12:35:38.324Z,8.47
2018-07-22T12:38:06.917Z,7.70
2018-07-22T12:40:35.599Z,7.83
2018-07-22T12:43:04.286Z,7.70
2018-07-22T12:45:33.043Z,7.93
2018-07-22T12:48:01.887Z,8.07
2018-07-22T12:50:30.577Z,7.77
2018-07-22T12:52:59.199Z,8.17
2018-07-22T12:55:27.826Z,7.97
2018-07-22T12:57:57.180Z,7.70
2018-07-22T13:00:25.949Z,8.00
2018-07-22T13:02:54.656Z,8.53
2018-07-22T13:05:23.475Z,8.10
2018-07-22T13:07:52.165Z,8.20
2018-07-22T13:10:20.833Z,7.63
2018-07-22T13:12:49.480Z,7.93
2018-07-22T13:15:18.043Z,8.73
2018-07-22T13:17:46.644Z,7.37
2018-07-22T13:20:15.364Z,7.67
2018-07-22T13:22:43.980Z,7.33
2018-07-22T13:25:12.637Z,7.80
2018-07-22T13:27:41.278Z,7.33
2018-07-22T13:30:10.013Z,7.73
2018-07-22T13:32:38.601Z,7.37
2018-07-22T13:35:07.207Z,7.50
2018-07-22T13:37:39.032Z,8.33
2018-07-22T13:40:07.657Z,7.60
2018-07-22T13:42:36.380Z,7.60
2018-07-22T13:45:05.757Z,8.20
2018-07-22T13:47:34.341Z,7.20
2018-07-22T13:50:03.053Z,8.13
2018-07-22T13:52:31.703Z,7.67
2018-07-22T13:55:00.323Z,7.57
2018-07-22T13:57:28.961Z,8.23
2018-07-22T13:59:57.609Z,7.80
2018-07-22T14:02:26.289Z,7.70
2018-07-22T14:04:54.973Z,8.13
2018-07-22T14:07:23.671Z,8.43
2018-07-22T14:09:52.404Z,7.60
2018-07-22T14:12:22.873Z,7.33
2018-07-22T14:14:51.804Z,7.60
2018-07-22T14:17:20.442Z,7.77
2018-07-22T14:19:49.176Z,7.70
2018-07-22T14:22:17.830Z,7.87
2018-07-22T14:24:46.478Z,8.20
2018-07-22T14:27:15.225Z,7.83
2018-07-22T14:29:43.807Z,7.97
2018-07-22T14:32:12.523Z,8.10
2018-07-22T14:34:41.410Z,7.37
2018-07-22T14:37:10.002Z,7.60
2018-07-22T14:39:38.601Z,8.03
2018-07-22T14:42:07.280Z,7.50
2018-07-22T14:44:35.872Z,8.17
2018-07-22T14:47:04.928Z,8.30
2018-07-22T14:49:34.319Z,8.17
2018-07-22T14:52:03.026Z,7.90
2018-07-22T14:54:31.603Z,8.37
2018-07-22T14:57:00.325Z,7.93
2018-07-22T14:59:28.988Z,8.07
2018-07-22T15:01:57.626Z,8.00
2018-07-22T15:04:26.342Z,8.10
2018-07-22T15:06:54.984Z,8.40
2018-07-22T15:09:23.603Z,8.13
2018-07-22T15:11:53.261Z,7.97
2018-07-22T15:14:21.919Z,7.97
2018-07-22T15:16:50.822Z,7.97
2018-07-22T15:19:19.436Z,8.07
2018-07-22T15:21:48.089Z,7.90
2018-07-22T15:24:16.705Z,8.10
2018-07-22T15:26:45.367Z,8.83
2018-07-22T15:29:13.995Z,8.10
2018-07-22T15:31:42.559Z,8.67
2018-07-22T15:34:11.241Z,9.27
2018-07-22T15:36:39.863Z,8.97
2018-07-22T15:39:10.508Z,9.30
2018-07-22T15:41:39.094Z,9.43
2018-07-22T15:44:07.841Z,8.67
2018-07-22T15:46:36.599Z,8.73
2018-07-22T15:49:06.225Z,9.07
2018-07-22T15:51:34.942Z,8.97
2018-07-22T15:54:03.692Z,9.70
2018-07-22T15:56:32.340Z,9.23
2018-07-22T15:59:00.979Z,9.20
2018-07-22T16:01:30.681Z,9.83
2018-07-22T16:03:59.524Z,9.57
2018-07-22T16:06:28.188Z,9.73
2018-07-22T16:08:56.824Z,9.97
2018-07-22T16:11:25.675Z,10.07
2018-07-22T16:13:54.412Z,10.53
2018-07-22T16:16:23.132Z,10.33
2018-07-22T16:18:51.796Z,10.70
2018-07-22T16:21:20.647Z,10.20
2018-07-22T16:23:49.326Z,10.03
2018-07-22T16:26:17.898Z,9.60
2018-07-22T16:28:46.564Z,9.97
2018-07-22T16:31:15.335Z,10.27
2018-07-22T16:33:44.081Z,10.70
2018-07-22T16:36:13.054Z,10.43
2018-07-22T16:38:42.109Z,11.07
2018-07-22T16:41:10.738Z,10.97
2018-07-22T16:43:40.312Z,10.93
2018-07-22T16:46:08.929Z,10.33
2018-07-22T16:48:37.604Z,10.80
2018-07-22T16:51:06.521Z,12.13
2018-07-22T16:53:35.197Z,11.17
2018-07-22T16:56:03.568Z,11.40
2018-07-22T16:58:32.267Z,11.13
2018-07-22T17:01:00.904Z,11.23
2018-07-22T17:03:29.500Z,11.70
2018-07-22T17:05:58.433Z,11.27
2018-07-22T17:08:27.061Z,11.70
2018-07-22T17:10:55.812Z,11.53
2018-07-22T17:13:24.526Z,11.90
2018-07-22T17:15:53.337Z,12.00
2018-07-22T17:18:22.016Z,12.73
2018-07-22T17:20:51.471Z,12.37
2018-07-22T17:23:20.133Z,12.03
2018-07-22T17:25:48.837Z,12.60
2018-07-22T17:28:17.560Z,12.30
2018-07-22T17:30:46.648Z,12.27
2018-07-22T17:33:15.378Z,12.77
2018-07-22T17:35:43.981Z,13.37
2018-07-22T17:38:12.632Z,12.60
2018-07-22T17:40:41.348Z,13.37
2018-07-22T17:43:09.962Z,13.00
2018-07-22T17:45:38.600Z,13.53
2018-07-22T17:48:07.324Z,13.07
2018-07-22T17:50:35.857Z,13.83
2018-07-22T17:53:04.532Z,14.23
2018-07-22T17:55:33.181Z,13.70
2018-07-22T17:58:01.838Z,14.10
2018-07-22T18:00:30.483Z,14.50
2018-07-22T18:03:12.970Z,14.80
2018-07-22T18:05:41.588Z,14.90
2018-07-22T18:08:10.213Z,14.90
2018-07-22T18:10:38.923Z,15.77
2018-07-22T18:13:07.559Z,16.63
2018-07-22T18:15:36.195Z,16.37
2018-07-22T18:18:04.845Z,16.63
2018-07-22T18:20:33.669Z,16.33
2018-07-22T18:23:02.326Z,15.87
2018-07-22T18:25:31.179Z,15.30
2018-07-22T18:28:00.704Z,15.30
2018-07-22T18:30:29.556Z,15.33
2018-07-22T18:32:58.436Z,16.20
2018-07-22T18:35:27.104Z,15.20
2018-07-22T18:37:55.753Z,15.67
2018-07-22T18:40:25.280Z,15.20
2018-07-22T18:42:54.720Z,14.70
2018-07-22T18:45:23.498Z,15.27
2018-07-22T18:47:52.556Z,15.03
2018-07-22T18:50:21.371Z,14.83
2018-07-22T18:52:50.734Z,14.93
2018-07-22T18:55:19.488Z,14.33
2018-07-22T18:57:48.161Z,15.17
2018-07-22T19:00:16.820Z,15.90
2018-07-22T19:02:45.493Z,15.03
2018-07-22T19:05:14.114Z,15.20
2018-07-22T19:07:42.733Z,16.13
2018-07-22T19:10:11.391Z,16.10
2018-07-22T19:12:40.052Z,17.27
2018-07-22T19:15:08.742Z,18.53
2018-07-22T19:17:37.371Z,18.47
2018-07-22T19:20:06.429Z,18.40
2018-07-22T19:22:35.108Z,18.80
2018-07-22T19:25:03.854Z,17.97
2018-07-22T19:27:32.496Z,16.87
2018-07-22T19:30:01.164Z,18.00
2018-07-22T19:32:29.836Z,17.73
2018-07-22T19:34:58.575Z,17.43
2018-07-22T19:37:27.260Z,18.30
2018-07-22T19:39:55.890Z,18.43
2018-07-22T19:42:24.559Z,18.30
2018-07-22T19:44:53.301Z,18.80
2018-07-22T19:47:21.968Z,18.67
2018-07-22T19:49:50.583Z,18.73
2018-07-22T19:52:19.278Z,17.73
2018-07-22T19:54:48.030Z,17.73
2018-07-22T19:57:16.694Z,17.10
2018-07-22T19:59:45.370Z,17.23
2018-07-22T20:02:14.366Z,17.83
2018-07-22T20:04:42.985Z,18.30
2018-07-22T20:07:11.990Z,18.27
2018-07-22T20:09:40.614Z,18.63
2018-07-22T20:12:09.418Z,19.27
2018-07-22T20:14:38.089Z,18.60
2018-07-22T20:17:09.364Z,19.13
2018-07-22T20:19:44.118Z,18.63
2018-07-22T20:22:12.883Z,16.43
2018-07-22T20:24:41.860Z,17.83
2018-07-22T20:27:10.890Z,18.20
2018-07-22T20:29:39.740Z,18.53
2018-07-22T20:32:08.477Z,17.97
2018-07-22T20:34:37.166Z,20.03
2018-07-22T20:37:07.060Z,21.03
2018-07-22T20:39:35.849Z,20.63
2018-07-22T20:42:04.398Z,20.50
2018-07-22T20:44:32.890Z,19.50
2018-07-22T20:47:01.567Z,20.17
2018-07-22T20:49:30.106Z,20.87
2018-07-22T20:51:58.633Z,21.83
2018-07-22T20:54:27.226Z,21.50
2018-07-22T20:56:55.790Z,21.23
2018-07-22T20:59:24.293Z,21.67
2018-07-22T21:01:52.916Z,22.13
2018-07-22T21:04:21.453Z,21.47
2018-07-22T21:06:49.999Z,21.97
2018-07-22T21:09:18.544Z,20.80
2018-07-22T21:13:02.406Z,21.97
2018-07-22T21:15:31.301Z,24.00
2018-07-22T21:17:59.791Z,22.83
2018-07-22T21:20:28.459Z,22.63
2018-07-22T21:22:56.950Z,24.97
2018-07-22T21:25:25.446Z,23.10
2018-07-22T21:27:54.082Z,23.47
2018-07-22T21:30:22.698Z,23.23
2018-07-22T21:32:51.203Z,23.80
2018-07-22T21:35:19.778Z,23.70
2018-07-22T21:37:52.070Z,22.23
2018-07-22T21:40:20.776Z,22.10
2018-07-22T21:42:49.682Z,23.57
2018-07-22T21:45:18.162Z,22.43
2018-07-22T21:47:46.666Z,22.33
2018-07-22T21:50:15.185Z,23.37
2018-07-22T21:52:43.718Z,21.93
2018-07-22T21:55:12.326Z,23.33
2018-07-22T21:57:43.924Z,22.33
2018-07-22T22:00:16.059Z,22.23
2018-07-22T22:02:44.575Z,16.70
2018-07-22T22:05:13.105Z,14.23
2018-07-22T22:07:41.606Z,13.77
2018-07-22T22:10:10.207Z,13.97
2018-07-22T22:12:38.762Z,14.57
2018-07-22T22:15:16.670Z,15.77
2018-07-22T22:17:45.166Z,17.00
2018-07-22T22:20:13.732Z,16.50
2018-07-22T22:22:42.210Z,14.83
2018-07-22T22:25:10.691Z,14.60
2018-07-22T22:27:39.174Z,14.23
2018-07-22T22:30:08.362Z,15.07
2018-07-22T22:32:36.937Z,16.53
2018-07-22T22:35:05.640Z,15.30
2018-07-22T22:37:34.143Z,14.60
2018-07-22T22:40:02.672Z,11.47
2018-07-22T22:42:31.248Z,10.77
2018-07-22T22:44:59.806Z,9.73
2018-07-22T22:47:28.310Z,10.73
2018-07-22T22:49:56.858Z,10.27
2018-07-22T22:52:25.446Z,10.33
2018-07-22T22:54:54.543Z,9.97
2018-07-22T22:57:23.131Z,17.10
2018-07-22T22:59:51.615Z,22.50
2018-07-22T23:02:20.195Z,22.70
2018-07-22T23:04:48.710Z,23.50
2018-07-22T23:07:17.351Z,24.83
2018-07-22T23:09:45.851Z,25.50
2018-07-22T23:12:14.474Z,25.40
2018-07-22T23:14:42.999Z,25.43
2018-07-22T23:17:11.642Z,25.13
2018-07-22T23:19:40.282Z,23.00
2018-07-22T23:22:08.798Z,22.67
2018-07-22T23:24:37.285Z,25.43
2018-07-22T23:27:05.795Z,25.27
2018-07-22T23:29:34.275Z,27.33
2018-07-22T23:32:02.798Z,26.07
2018-07-22T23:34:31.278Z,26.53
2018-07-22T23:37:00.422Z,26.83
2018-07-22T23:39:28.965Z,27.03
2018-07-22T23:41:57.524Z,25.20
2018-07-22T23:44:26.157Z,27.10
2018-07-22T23:46:54.684Z,26.73
2018-07-22T23:49:23.241Z,26.90
2018-07-22T23:51:51.714Z,26.80
2018-07-22T23:54:20.226Z,26.17
2018-07-22T23:56:48.767Z,26.33
2018-07-22T23:59:17.295Z,26.67
